sensor_id;sensor_type;location;lat;lon;timestamp;temperature;humidity
71237;DHT22;58984;51.960;5.582;2023-02-15T00:01:55;15.30;52.30
71237;DHT22;58984;51.960;5.582;2023-02-15T00:04:24;15.30;52.30
71237;DHT22;58984;51.960;5.582;2023-02-15T00:07:10;15.30;52.30
71237;DHT22;58984;51.960;5.582;2023-02-15T00:09:35;15.30;52.30
71237;DHT22;58984;51.960;5.582;2023-02-15T00:12:01;15.30;52.50
71237;DHT22;58984;51.960;5.582;2023-02-15T00:14:27;15.30;52.40
71237;DHT22;58984;51.960;5.582;2023-02-15T00:16:52;15.30;52.30
71237;DHT22;58984;51.960;5.582;2023-02-15T00:19:20;15.20;52.20
71237;DHT22;58984;51.960;5.582;2023-02-15T00:21:47;15.20;52.20
71237;DHT22;58984;51.960;5.582;2023-02-15T00:24:15;15.20;52.20
71237;DHT22;58984;51.960;5.582;2023-02-15T00:26:42;15.20;52.40
71237;DHT22;58984;51.960;5.582;2023-02-15T00:29:08;15.20;52.40
71237;DHT22;58984;51.960;5.582;2023-02-15T00:31:34;15.20;52.20
71237;DHT22;58984;51.960;5.582;2023-02-15T00:34:02;15.20;52.40
71237;DHT22;58984;51.960;5.582;2023-02-15T00:36:27;15.20;52.30
71237;DHT22;58984;51.960;5.582;2023-02-15T00:38:53;15.10;52.20
71237;DHT22;58984;51.960;5.582;2023-02-15T00:41:18;15.10;52.20
71237;DHT22;58984;51.960;5.582;2023-02-15T00:43:44;15.10;52.10
71237;DHT22;58984;51.960;5.582;2023-02-15T00:46:09;15.10;52.20
71237;DHT22;58984;51.960;5.582;2023-02-15T00:48:35;15.10;52.20
71237;DHT22;58984;51.960;5.582;2023-02-15T00:51:01;15.10;52.10
71237;DHT22;58984;51.960;5.582;2023-02-15T00:53:27;15.10;52.20
71237;DHT22;58984;51.960;5.582;2023-02-15T00:55:53;15.10;52.30
71237;DHT22;58984;51.960;5.582;2023-02-15T00:58:19;15.10;52.10
71237;DHT22;58984;51.960;5.582;2023-02-15T01:00:46;15.00;52.10
71237;DHT22;58984;51.960;5.582;2023-02-15T01:03:13;15.00;52.00
71237;DHT22;58984;51.960;5.582;2023-02-15T01:05:39;15.00;52.00
71237;DHT22;58984;51.960;5.582;2023-02-15T01:08:05;15.00;52.10
71237;DHT22;58984;51.960;5.582;2023-02-15T01:10:33;15.00;52.00
71237;DHT22;58984;51.960;5.582;2023-02-15T01:12:58;14.90;52.00
71237;DHT22;58984;51.960;5.582;2023-02-15T01:15:24;15.00;52.00
71237;DHT22;58984;51.960;5.582;2023-02-15T01:17:50;14.90;52.00
71237;DHT22;58984;51.960;5.582;2023-02-15T01:20:21;14.90;52.00
71237;DHT22;58984;51.960;5.582;2023-02-15T01:22:46;14.90;52.00
71237;DHT22;58984;51.960;5.582;2023-02-15T01:25:18;14.90;51.90
71237;DHT22;58984;51.960;5.582;2023-02-15T01:27:44;14.90;52.00
71237;DHT22;58984;51.960;5.582;2023-02-15T01:30:11;14.90;52.00
71237;DHT22;58984;51.960;5.582;2023-02-15T01:32:37;14.80;51.80
71237;DHT22;58984;51.960;5.582;2023-02-15T01:35:02;14.90;51.90
71237;DHT22;58984;51.960;5.582;2023-02-15T01:37:30;14.80;51.90
71237;DHT22;58984;51.960;5.582;2023-02-15T01:39:56;14.80;51.80
71237;DHT22;58984;51.960;5.582;2023-02-15T01:42:23;14.80;51.90
71237;DHT22;58984;51.960;5.582;2023-02-15T01:44:55;14.80;51.80
71237;DHT22;58984;51.960;5.582;2023-02-15T01:50:00;14.80;51.80
71237;DHT22;58984;51.960;5.582;2023-02-15T01:52:27;14.70;51.80
71237;DHT22;58984;51.960;5.582;2023-02-15T01:54:52;14.70;51.80
71237;DHT22;58984;51.960;5.582;2023-02-15T01:57:22;14.70;51.80
71237;DHT22;58984;51.960;5.582;2023-02-15T01:59:52;14.70;51.80
71237;DHT22;58984;51.960;5.582;2023-02-15T02:02:20;14.70;51.80
71237;DHT22;58984;51.960;5.582;2023-02-15T02:04:51;14.70;51.80
71237;DHT22;58984;51.960;5.582;2023-02-15T02:07:24;14.60;51.70
71237;DHT22;58984;51.960;5.582;2023-02-15T02:09:52;14.60;51.70
71237;DHT22;58984;51.960;5.582;2023-02-15T02:12:18;14.60;51.70
71237;DHT22;58984;51.960;5.582;2023-02-15T02:14:46;14.60;51.70
71237;DHT22;58984;51.960;5.582;2023-02-15T02:28:38;14.40;51.70
71237;DHT22;58984;51.960;5.582;2023-02-15T02:33:57;14.40;51.60
71237;DHT22;58984;51.960;5.582;2023-02-15T02:36:49;14.40;51.60
71237;DHT22;58984;51.960;5.582;2023-02-15T02:39:42;14.40;51.80
71237;DHT22;58984;51.960;5.582;2023-02-15T02:42:25;14.40;51.70
71237;DHT22;58984;51.960;5.582;2023-02-15T02:45:13;14.30;51.60
71237;DHT22;58984;51.960;5.582;2023-02-15T02:47:44;14.30;51.70
71237;DHT22;58984;51.960;5.582;2023-02-15T02:50:21;14.30;51.60
71237;DHT22;58984;51.960;5.582;2023-02-15T02:52:49;14.30;51.50
71237;DHT22;58984;51.960;5.582;2023-02-15T03:00:18;14.30;51.50
71237;DHT22;58984;51.960;5.582;2023-02-15T03:02:47;14.30;51.50
71237;DHT22;58984;51.960;5.582;2023-02-15T03:05:20;14.20;51.50
71237;DHT22;58984;51.960;5.582;2023-02-15T03:07:49;14.20;51.50
71237;DHT22;58984;51.960;5.582;2023-02-15T03:10:18;14.20;51.50
71237;DHT22;58984;51.960;5.582;2023-02-15T03:12:46;14.20;51.50
71237;DHT22;58984;51.960;5.582;2023-02-15T03:15:20;14.20;51.50
71237;DHT22;58984;51.960;5.582;2023-02-15T03:17:51;14.10;51.40
71237;DHT22;58984;51.960;5.582;2023-02-15T03:20:23;14.10;51.50
71237;DHT22;58984;51.960;5.582;2023-02-15T03:22:56;14.10;51.30
71237;DHT22;58984;51.960;5.582;2023-02-15T03:25:48;14.10;51.50
71237;DHT22;58984;51.960;5.582;2023-02-15T03:28:17;14.10;51.40
71237;DHT22;58984;51.960;5.582;2023-02-15T03:30:46;14.00;51.30
71237;DHT22;58984;51.960;5.582;2023-02-15T03:33:14;14.10;51.50
71237;DHT22;58984;51.960;5.582;2023-02-15T03:38:36;14.00;51.50
71237;DHT22;58984;51.960;5.582;2023-02-15T03:41:03;14.00;51.50
71237;DHT22;58984;51.960;5.582;2023-02-15T03:44:06;14.00;51.40
71237;DHT22;58984;51.960;5.582;2023-02-15T03:46:53;14.00;51.50
71237;DHT22;58984;51.960;5.582;2023-02-15T03:49:25;13.90;51.40
71237;DHT22;58984;51.960;5.582;2023-02-15T03:51:54;14.00;51.50
71237;DHT22;58984;51.960;5.582;2023-02-15T03:54:27;13.90;51.40
71237;DHT22;58984;51.960;5.582;2023-02-15T03:57:13;13.90;51.40
71237;DHT22;58984;51.960;5.582;2023-02-15T03:59:58;13.90;51.50
71237;DHT22;58984;51.960;5.582;2023-02-15T04:05:26;13.80;51.40
71237;DHT22;58984;51.960;5.582;2023-02-15T04:07:52;13.80;51.40
71237;DHT22;58984;51.960;5.582;2023-02-15T04:10:18;13.80;51.40
71237;DHT22;58984;51.960;5.582;2023-02-15T04:13:01;13.80;51.40
71237;DHT22;58984;51.960;5.582;2023-02-15T04:15:27;13.80;51.30
71237;DHT22;58984;51.960;5.582;2023-02-15T04:18:11;13.80;51.30
71237;DHT22;58984;51.960;5.582;2023-02-15T04:20:36;13.80;51.40
71237;DHT22;58984;51.960;5.582;2023-02-15T04:23:21;13.80;51.30
71237;DHT22;58984;51.960;5.582;2023-02-15T04:26:05;13.70;51.30
71237;DHT22;58984;51.960;5.582;2023-02-15T04:28:30;13.70;51.30
71237;DHT22;58984;51.960;5.582;2023-02-15T04:30:56;13.70;51.30
71237;DHT22;58984;51.960;5.582;2023-02-15T04:33:22;13.70;51.30
71237;DHT22;58984;51.960;5.582;2023-02-15T04:35:47;13.60;51.10
71237;DHT22;58984;51.960;5.582;2023-02-15T04:38:13;13.70;51.30
71237;DHT22;58984;51.960;5.582;2023-02-15T04:40:38;13.60;51.20
71237;DHT22;58984;51.960;5.582;2023-02-15T04:43:04;13.60;51.30
71237;DHT22;58984;51.960;5.582;2023-02-15T04:45:29;13.60;51.30
71237;DHT22;58984;51.960;5.582;2023-02-15T04:47:55;13.60;51.20
71237;DHT22;58984;51.960;5.582;2023-02-15T04:50:21;13.60;51.20
71237;DHT22;58984;51.960;5.582;2023-02-15T04:52:46;13.60;51.10
71237;DHT22;58984;51.960;5.582;2023-02-15T04:55:12;13.50;51.10
71237;DHT22;58984;51.960;5.582;2023-02-15T04:57:38;13.50;51.10
71237;DHT22;58984;51.960;5.582;2023-02-15T05:00:04;13.50;51.10
71237;DHT22;58984;51.960;5.582;2023-02-15T05:02:29;13.50;51.10
71237;DHT22;58984;51.960;5.582;2023-02-15T05:04:55;13.50;51.10
71237;DHT22;58984;51.960;5.582;2023-02-15T05:07:21;13.50;51.10
71237;DHT22;58984;51.960;5.582;2023-02-15T05:09:46;13.40;51.10
71237;DHT22;58984;51.960;5.582;2023-02-15T05:12:12;13.40;51.10
71237;DHT22;58984;51.960;5.582;2023-02-15T05:14:37;13.40;51.10
71237;DHT22;58984;51.960;5.582;2023-02-15T05:17:03;13.40;51.10
71237;DHT22;58984;51.960;5.582;2023-02-15T05:19:30;13.30;51.00
71237;DHT22;58984;51.960;5.582;2023-02-15T05:21:56;13.40;51.10
71237;DHT22;58984;51.960;5.582;2023-02-15T05:24:21;13.40;51.10
71237;DHT22;58984;51.960;5.582;2023-02-15T05:27:06;13.30;51.10
71237;DHT22;58984;51.960;5.582;2023-02-15T05:29:50;13.30;51.10
71237;DHT22;58984;51.960;5.582;2023-02-15T05:32:15;13.30;51.10
71237;DHT22;58984;51.960;5.582;2023-02-15T05:34:41;13.30;51.00
71237;DHT22;58984;51.960;5.582;2023-02-15T05:37:07;13.30;51.00
71237;DHT22;58984;51.960;5.582;2023-02-15T05:39:33;13.20;51.60
71237;DHT22;58984;51.960;5.582;2023-02-15T05:42:00;13.20;50.90
71237;DHT22;58984;51.960;5.582;2023-02-15T05:44:25;13.20;50.90
71237;DHT22;58984;51.960;5.582;2023-02-15T05:46:51;13.20;50.90
71237;DHT22;58984;51.960;5.582;2023-02-15T05:49:16;13.20;50.90
71237;DHT22;58984;51.960;5.582;2023-02-15T05:51:42;13.20;50.90
71237;DHT22;58984;51.960;5.582;2023-02-15T05:54:07;13.20;50.90
71237;DHT22;58984;51.960;5.582;2023-02-15T05:56:33;13.10;50.80
71237;DHT22;58984;51.960;5.582;2023-02-15T05:58:59;13.10;50.80
71237;DHT22;58984;51.960;5.582;2023-02-15T06:01:24;13.10;50.90
71237;DHT22;58984;51.960;5.582;2023-02-15T06:03:50;13.10;50.80
71237;DHT22;58984;51.960;5.582;2023-02-15T06:06:16;13.10;50.80
71237;DHT22;58984;51.960;5.582;2023-02-15T06:08:41;13.10;50.80
71237;DHT22;58984;51.960;5.582;2023-02-15T06:11:07;13.00;50.70
71237;DHT22;58984;51.960;5.582;2023-02-15T06:13:34;13.00;50.80
71237;DHT22;58984;51.960;5.582;2023-02-15T06:15:59;13.00;50.70
71237;DHT22;58984;51.960;5.582;2023-02-15T06:18:25;13.00;50.80
71237;DHT22;58984;51.960;5.582;2023-02-15T06:20:52;13.00;50.80
71237;DHT22;58984;51.960;5.582;2023-02-15T06:23:18;13.00;50.70
71237;DHT22;58984;51.960;5.582;2023-02-15T06:25:45;12.90;50.60
71237;DHT22;58984;51.960;5.582;2023-02-15T06:28:11;12.90;50.70
71237;DHT22;58984;51.960;5.582;2023-02-15T06:30:36;12.90;50.70
71237;DHT22;58984;51.960;5.582;2023-02-15T06:33:02;12.90;50.70
71237;DHT22;58984;51.960;5.582;2023-02-15T06:35:28;12.80;50.60
71237;DHT22;58984;51.960;5.582;2023-02-15T06:37:53;12.90;50.70
71237;DHT22;58984;51.960;5.582;2023-02-15T06:40:19;12.90;50.80
71237;DHT22;58984;51.960;5.582;2023-02-15T06:42:45;12.80;50.60
71237;DHT22;58984;51.960;5.582;2023-02-15T06:45:11;12.80;50.60
71237;DHT22;58984;51.960;5.582;2023-02-15T06:47:37;12.80;50.70
71237;DHT22;58984;51.960;5.582;2023-02-15T06:50:04;12.80;50.60
71237;DHT22;58984;51.960;5.582;2023-02-15T06:52:29;12.80;50.60
71237;DHT22;58984;51.960;5.582;2023-02-15T06:54:55;12.70;50.50
71237;DHT22;58984;51.960;5.582;2023-02-15T06:57:21;12.70;50.60
71237;DHT22;58984;51.960;5.582;2023-02-15T06:59:46;12.70;50.60
71237;DHT22;58984;51.960;5.582;2023-02-15T07:02:13;12.70;50.60
71237;DHT22;58984;51.960;5.582;2023-02-15T07:04:38;12.70;50.50
71237;DHT22;58984;51.960;5.582;2023-02-15T07:07:07;12.70;50.60
71237;DHT22;58984;51.960;5.582;2023-02-15T07:09:32;12.70;50.60
71237;DHT22;58984;51.960;5.582;2023-02-15T07:11:58;12.70;50.60
71237;DHT22;58984;51.960;5.582;2023-02-15T07:14:42;12.70;50.60
71237;DHT22;58984;51.960;5.582;2023-02-15T07:17:08;12.60;50.60
71237;DHT22;58984;51.960;5.582;2023-02-15T07:19:33;12.60;50.60
71237;DHT22;58984;51.960;5.582;2023-02-15T07:21:59;12.60;50.60
71237;DHT22;58984;51.960;5.582;2023-02-15T07:24:25;12.60;50.60
71237;DHT22;58984;51.960;5.582;2023-02-15T07:26:51;12.60;50.70
71237;DHT22;58984;51.960;5.582;2023-02-15T07:29:17;12.60;50.60
71237;DHT22;58984;51.960;5.582;2023-02-15T07:31:43;12.60;50.60
71237;DHT22;58984;51.960;5.582;2023-02-15T07:34:11;12.60;50.60
71237;DHT22;58984;51.960;5.582;2023-02-15T07:36:36;12.50;50.60
71237;DHT22;58984;51.960;5.582;2023-02-15T07:39:02;12.50;50.60
71237;DHT22;58984;51.960;5.582;2023-02-15T07:41:28;12.60;50.60
71237;DHT22;58984;51.960;5.582;2023-02-15T07:43:53;12.50;50.60
71237;DHT22;58984;51.960;5.582;2023-02-15T07:46:19;12.50;50.60
71237;DHT22;58984;51.960;5.582;2023-02-15T07:48:46;12.50;50.60
71237;DHT22;58984;51.960;5.582;2023-02-15T07:51:12;12.50;50.60
71237;DHT22;58984;51.960;5.582;2023-02-15T07:53:39;12.50;50.60
71237;DHT22;58984;51.960;5.582;2023-02-15T07:56:11;12.40;50.50
71237;DHT22;58984;51.960;5.582;2023-02-15T07:58:37;12.40;50.60
71237;DHT22;58984;51.960;5.582;2023-02-15T08:03:44;12.40;50.60
71237;DHT22;58984;51.960;5.582;2023-02-15T08:06:10;12.40;50.60
71237;DHT22;58984;51.960;5.582;2023-02-15T08:08:38;12.40;50.60
71237;DHT22;58984;51.960;5.582;2023-02-15T08:19:21;12.40;50.70
71237;DHT22;58984;51.960;5.582;2023-02-15T08:21:52;12.30;50.60
71237;DHT22;58984;51.960;5.582;2023-02-15T08:24:23;12.40;50.70
71237;DHT22;58984;51.960;5.582;2023-02-15T08:26:50;12.30;50.60
71237;DHT22;58984;51.960;5.582;2023-02-15T08:29:17;12.40;50.70
71237;DHT22;58984;51.960;5.582;2023-02-15T08:31:44;12.40;50.90
71237;DHT22;58984;51.960;5.582;2023-02-15T08:34:13;12.40;50.90
71237;DHT22;58984;51.960;5.582;2023-02-15T08:36:38;12.40;50.90
71237;DHT22;58984;51.960;5.582;2023-02-15T08:39:05;12.40;50.80
71237;DHT22;58984;51.960;5.582;2023-02-15T08:41:33;12.30;50.70
71237;DHT22;58984;51.960;5.582;2023-02-15T08:44:01;12.30;50.80
71237;DHT22;58984;51.960;5.582;2023-02-15T08:46:29;12.30;50.80
71237;DHT22;58984;51.960;5.582;2023-02-15T08:48:55;12.30;50.90
71237;DHT22;58984;51.960;5.582;2023-02-15T08:51:27;12.40;50.80
71237;DHT22;58984;51.960;5.582;2023-02-15T08:53:55;12.30;51.50
71237;DHT22;58984;51.960;5.582;2023-02-15T08:56:30;12.30;50.80
71237;DHT22;58984;51.960;5.582;2023-02-15T08:58:57;12.40;51.00
71237;DHT22;58984;51.960;5.582;2023-02-15T09:01:26;12.40;51.00
71237;DHT22;58984;51.960;5.582;2023-02-15T09:03:56;12.30;51.10
71237;DHT22;58984;51.960;5.582;2023-02-15T09:06:22;12.30;51.10
71237;DHT22;58984;51.960;5.582;2023-02-15T09:08:49;12.40;51.20
71237;DHT22;58984;51.960;5.582;2023-02-15T09:11:16;12.30;51.20
71237;DHT22;58984;51.960;5.582;2023-02-15T09:13:49;12.40;51.20
71237;DHT22;58984;51.960;5.582;2023-02-15T09:16:15;12.40;51.30
71237;DHT22;58984;51.960;5.582;2023-02-15T09:18:42;12.50;51.50
71237;DHT22;58984;51.960;5.582;2023-02-15T09:21:11;12.50;51.40
71237;DHT22;58984;51.960;5.582;2023-02-15T09:23:39;12.50;51.30
71237;DHT22;58984;51.960;5.582;2023-02-15T09:26:07;12.50;51.90
71237;DHT22;58984;51.960;5.582;2023-02-15T09:28:33;12.50;51.30
71237;DHT22;58984;51.960;5.582;2023-02-15T09:31:14;12.60;51.40
71237;DHT22;58984;51.960;5.582;2023-02-15T09:33:42;12.50;51.50
71237;DHT22;58984;51.960;5.582;2023-02-15T09:38:52;12.60;51.40
71237;DHT22;58984;51.960;5.582;2023-02-15T09:41:38;12.60;51.40
71237;DHT22;58984;51.960;5.582;2023-02-15T09:52:55;12.70;51.50
71237;DHT22;58984;51.960;5.582;2023-02-15T10:27:47;13.50;52.70
71237;DHT22;58984;51.960;5.582;2023-02-15T10:30:18;13.50;52.60
71237;DHT22;58984;51.960;5.582;2023-02-15T10:33:21;13.60;52.70
71237;DHT22;58984;51.960;5.582;2023-02-15T10:36:23;13.70;52.80
71237;DHT22;58984;51.960;5.582;2023-02-15T10:39:11;13.70;52.80
71237;DHT22;58984;51.960;5.582;2023-02-15T10:42:03;13.80;52.90
71237;DHT22;58984;51.960;5.582;2023-02-15T10:47:41;14.00;53.00
71237;DHT22;58984;51.960;5.582;2023-02-15T10:51:13;14.00;53.30
71237;DHT22;58984;51.960;5.582;2023-02-15T10:58:56;14.30;53.90
71237;DHT22;58984;51.960;5.582;2023-02-15T11:01:29;14.30;53.80
71237;DHT22;58984;51.960;5.582;2023-02-15T11:04:30;14.50;54.00
71237;DHT22;58984;51.960;5.582;2023-02-15T11:07:38;14.50;54.00
71237;DHT22;58984;51.960;5.582;2023-02-15T11:10:15;14.60;54.10
71237;DHT22;58984;51.960;5.582;2023-02-15T11:12:47;14.70;54.50
71237;DHT22;58984;51.960;5.582;2023-02-15T11:15:26;14.80;54.30
71237;DHT22;58984;51.960;5.582;2023-02-15T11:18:02;14.80;54.50
71237;DHT22;58984;51.960;5.582;2023-02-15T11:21:31;14.90;54.70
71237;DHT22;58984;51.960;5.582;2023-02-15T11:23:41;15.00;55.00
71237;DHT22;58984;51.960;5.582;2023-02-15T11:26:32;15.20;55.00
71237;DHT22;58984;51.960;5.582;2023-02-15T11:29:29;15.20;55.00
71237;DHT22;58984;51.960;5.582;2023-02-15T11:32:01;15.30;55.10
71237;DHT22;58984;51.960;5.582;2023-02-15T11:37:01;15.50;54.80
71237;DHT22;58984;51.960;5.582;2023-02-15T11:39:30;15.60;54.80
71237;DHT22;58984;51.960;5.582;2023-02-15T11:42:01;15.60;54.60
71237;DHT22;58984;51.960;5.582;2023-02-15T11:44:40;15.70;54.50
71237;DHT22;58984;51.960;5.582;2023-02-15T11:47:11;15.70;54.50
71237;DHT22;58984;51.960;5.582;2023-02-15T11:49:38;15.80;54.60
71237;DHT22;58984;51.960;5.582;2023-02-15T11:52:12;15.90;54.60
71237;DHT22;58984;51.960;5.582;2023-02-15T11:54:47;15.90;54.60
71237;DHT22;58984;51.960;5.582;2023-02-15T11:59:59;16.00;54.70
71237;DHT22;58984;51.960;5.582;2023-02-15T12:02:25;16.00;54.70
71237;DHT22;58984;51.960;5.582;2023-02-15T12:05:01;16.10;54.70
71237;DHT22;58984;51.960;5.582;2023-02-15T12:08:03;16.10;54.80
71237;DHT22;58984;51.960;5.582;2023-02-15T12:10:36;16.20;54.90
71237;DHT22;58984;51.960;5.582;2023-02-15T12:15:36;16.40;55.00
71237;DHT22;58984;51.960;5.582;2023-02-15T12:18:03;16.40;55.00
71237;DHT22;58984;51.960;5.582;2023-02-15T12:20:31;16.50;55.10
71237;DHT22;58984;51.960;5.582;2023-02-15T12:23:01;16.50;55.00
71237;DHT22;58984;51.960;5.582;2023-02-15T12:25:37;16.50;55.10
71237;DHT22;58984;51.960;5.582;2023-02-15T12:28:23;16.60;55.20
71237;DHT22;58984;51.960;5.582;2023-02-15T12:30:50;16.60;55.20
71237;DHT22;58984;51.960;5.582;2023-02-15T12:33:34;16.80;55.30
71237;DHT22;58984;51.960;5.582;2023-02-15T12:36:30;16.70;55.20
71237;DHT22;58984;51.960;5.582;2023-02-15T12:39:04;16.80;55.30
71237;DHT22;58984;51.960;5.582;2023-02-15T12:41:30;16.90;55.40
71237;DHT22;58984;51.960;5.582;2023-02-15T12:44:18;17.00;55.20
71237;DHT22;58984;51.960;5.582;2023-02-15T12:49:27;17.00;55.20
71237;DHT22;58984;51.960;5.582;2023-02-15T12:51:57;17.20;55.30
71237;DHT22;58984;51.960;5.582;2023-02-15T12:56:55;17.20;55.10
71237;DHT22;58984;51.960;5.582;2023-02-15T12:59:22;17.30;55.10
71237;DHT22;58984;51.960;5.582;2023-02-15T13:01:48;17.40;55.10
71237;DHT22;58984;51.960;5.582;2023-02-15T13:06:47;17.40;55.00
71237;DHT22;58984;51.960;5.582;2023-02-15T13:11:49;17.50;55.00
71237;DHT22;58984;51.960;5.582;2023-02-15T13:14:43;17.50;54.80
71237;DHT22;58984;51.960;5.582;2023-02-15T13:17:09;17.50;55.00
71237;DHT22;58984;51.960;5.582;2023-02-15T13:22:12;17.60;54.70
71237;DHT22;58984;51.960;5.582;2023-02-15T13:27:17;17.60;54.70
71237;DHT22;58984;51.960;5.582;2023-02-15T13:29:49;17.60;54.80
71237;DHT22;58984;51.960;5.582;2023-02-15T13:32:30;17.60;54.80
71237;DHT22;58984;51.960;5.582;2023-02-15T13:35:00;17.50;54.70
71237;DHT22;58984;51.960;5.582;2023-02-15T13:37:57;17.70;54.70
71237;DHT22;58984;51.960;5.582;2023-02-15T13:40:41;17.50;55.30
71237;DHT22;58984;51.960;5.582;2023-02-15T13:52:15;17.70;54.60
71237;DHT22;58984;51.960;5.582;2023-02-15T13:54:57;17.60;54.70
71237;DHT22;58984;51.960;5.582;2023-02-15T13:57:55;17.60;54.50
71237;DHT22;58984;51.960;5.582;2023-02-15T14:19:22;17.50;54.60
71237;DHT22;58984;51.960;5.582;2023-02-15T14:29:57;17.50;54.70
71237;DHT22;58984;51.960;5.582;2023-02-15T14:32:43;17.50;54.70
71237;DHT22;58984;51.960;5.582;2023-02-15T14:35:21;17.50;54.80
71237;DHT22;58984;51.960;5.582;2023-02-15T14:41:13;17.50;54.80
71237;DHT22;58984;51.960;5.582;2023-02-15T14:48:49;17.60;54.70
71237;DHT22;58984;51.960;5.582;2023-02-15T14:51:53;17.40;54.70
71237;DHT22;58984;51.960;5.582;2023-02-15T14:59:55;17.40;55.00
71237;DHT22;58984;51.960;5.582;2023-02-15T15:02:52;17.30;55.00
71237;DHT22;58984;51.960;5.582;2023-02-15T15:05:33;17.30;55.00
71237;DHT22;58984;51.960;5.582;2023-02-15T15:08:01;17.30;54.90
71237;DHT22;58984;51.960;5.582;2023-02-15T15:10:43;17.40;54.90
71237;DHT22;58984;51.960;5.582;2023-02-15T15:16:46;17.30;55.00
71237;DHT22;58984;51.960;5.582;2023-02-15T15:24:52;17.20;55.00
71237;DHT22;58984;51.960;5.582;2023-02-15T15:32:53;17.10;55.10
71237;DHT22;58984;51.960;5.582;2023-02-15T15:41:03;17.10;55.10
71237;DHT22;58984;51.960;5.582;2023-02-15T15:46:20;17.10;55.10
71237;DHT22;58984;51.960;5.582;2023-02-15T15:48:49;17.00;55.10
71237;DHT22;58984;51.960;5.582;2023-02-15T15:51:31;17.10;55.30
71237;DHT22;58984;51.960;5.582;2023-02-15T15:53:59;16.90;55.40
71237;DHT22;58984;51.960;5.582;2023-02-15T15:56:33;17.00;55.40
71237;DHT22;58984;51.960;5.582;2023-02-15T15:59:13;17.00;55.50
71237;DHT22;58984;51.960;5.582;2023-02-15T16:01:43;16.90;55.40
71237;DHT22;58984;51.960;5.582;2023-02-15T16:04:14;17.00;55.40
71237;DHT22;58984;51.960;5.582;2023-02-15T16:06:47;16.90;55.40
71237;DHT22;58984;51.960;5.582;2023-02-15T16:11:47;16.90;55.40
71237;DHT22;58984;51.960;5.582;2023-02-15T16:14:26;16.90;55.40
71237;DHT22;58984;51.960;5.582;2023-02-15T16:16:57;16.80;55.40
71237;DHT22;58984;51.960;5.582;2023-02-15T16:19:29;16.80;55.40
71237;DHT22;58984;51.960;5.582;2023-02-15T16:21:55;16.80;55.30
71237;DHT22;58984;51.960;5.582;2023-02-15T16:24:36;16.90;55.40
71237;DHT22;58984;51.960;5.582;2023-02-15T16:27:28;16.80;55.10
71237;DHT22;58984;51.960;5.582;2023-02-15T16:29:56;16.80;55.30
71237;DHT22;58984;51.960;5.582;2023-02-15T16:32:24;16.80;55.10
71237;DHT22;58984;51.960;5.582;2023-02-15T16:35:01;16.70;55.30
71237;DHT22;58984;51.960;5.582;2023-02-15T16:37:32;16.70;55.30
71237;DHT22;58984;51.960;5.582;2023-02-15T16:39:58;16.70;55.20
71237;DHT22;58984;51.960;5.582;2023-02-15T16:42:24;16.70;55.20
71237;DHT22;58984;51.960;5.582;2023-02-15T16:44:55;16.70;55.20
71237;DHT22;58984;51.960;5.582;2023-02-15T16:47:26;16.60;55.20
71237;DHT22;58984;51.960;5.582;2023-02-15T16:49:54;16.60;55.20
71237;DHT22;58984;51.960;5.582;2023-02-15T16:52:23;16.60;55.10
71237;DHT22;58984;51.960;5.582;2023-02-15T16:54:59;16.60;55.10
71237;DHT22;58984;51.960;5.582;2023-02-15T16:57:28;16.50;55.10
71237;DHT22;58984;51.960;5.582;2023-02-15T17:00:00;16.50;55.10
71237;DHT22;58984;51.960;5.582;2023-02-15T17:02:30;16.50;54.90
71237;DHT22;58984;51.960;5.582;2023-02-15T17:07:42;16.40;54.90
71237;DHT22;58984;51.960;5.582;2023-02-15T17:10:33;16.40;54.70
71237;DHT22;58984;51.960;5.582;2023-02-15T17:13:03;16.40;54.90
71237;DHT22;58984;51.960;5.582;2023-02-15T17:18:04;16.40;54.70
71237;DHT22;58984;51.960;5.582;2023-02-15T17:20:32;16.30;54.40
71237;DHT22;58984;51.960;5.582;2023-02-15T17:22:58;16.40;54.30
71237;DHT22;58984;51.960;5.582;2023-02-15T17:25:40;16.30;54.20
71237;DHT22;58984;51.960;5.582;2023-02-15T17:28:17;16.20;54.20
71237;DHT22;58984;51.960;5.582;2023-02-15T17:30:44;16.20;54.10
71237;DHT22;58984;51.960;5.582;2023-02-15T17:36:17;16.20;54.10
71237;DHT22;58984;51.960;5.582;2023-02-15T17:41:26;16.20;54.00
71237;DHT22;58984;51.960;5.582;2023-02-15T17:43:51;16.20;54.00
71237;DHT22;58984;51.960;5.582;2023-02-15T17:46:17;16.20;54.00
71237;DHT22;58984;51.960;5.582;2023-02-15T17:48:50;16.20;54.00
71237;DHT22;58984;51.960;5.582;2023-02-15T17:51:18;16.10;53.80
71237;DHT22;58984;51.960;5.582;2023-02-15T17:53:44;16.10;53.60
71237;DHT22;58984;51.960;5.582;2023-02-15T17:56:28;16.10;53.60
71237;DHT22;58984;51.960;5.582;2023-02-15T17:58:54;16.10;54.10
71237;DHT22;58984;51.960;5.582;2023-02-15T18:01:20;16.00;53.50
71237;DHT22;58984;51.960;5.582;2023-02-15T18:04:08;16.00;53.40
71237;DHT22;58984;51.960;5.582;2023-02-15T18:06:52;16.00;53.30
71237;DHT22;58984;51.960;5.582;2023-02-15T18:09:36;16.00;53.20
71237;DHT22;58984;51.960;5.582;2023-02-15T18:14:48;15.90;53.00
71237;DHT22;58984;51.960;5.582;2023-02-15T18:17:15;15.90;53.70
71237;DHT22;58984;51.960;5.582;2023-02-15T18:19:43;15.90;53.20
71237;DHT22;58984;51.960;5.582;2023-02-15T18:22:15;15.90;53.20
71237;DHT22;58984;51.960;5.582;2023-02-15T18:24:42;15.80;53.10
71237;DHT22;58984;51.960;5.582;2023-02-15T18:27:11;15.90;53.20
71237;DHT22;58984;51.960;5.582;2023-02-15T18:29:37;15.80;53.10
71237;DHT22;58984;51.960;5.582;2023-02-15T18:32:05;15.80;52.90
71237;DHT22;58984;51.960;5.582;2023-02-15T18:34:39;15.80;53.00
71237;DHT22;58984;51.960;5.582;2023-02-15T18:37:13;15.70;53.10
71237;DHT22;58984;51.960;5.582;2023-02-15T18:39:43;15.70;52.90
71237;DHT22;58984;51.960;5.582;2023-02-15T18:42:31;15.70;52.90
71237;DHT22;58984;51.960;5.582;2023-02-15T18:45:14;15.70;52.90
71237;DHT22;58984;51.960;5.582;2023-02-15T18:47:40;15.70;52.70
71237;DHT22;58984;51.960;5.582;2023-02-15T18:50:06;15.70;52.70
71237;DHT22;58984;51.960;5.582;2023-02-15T18:52:35;15.70;52.60
71237;DHT22;58984;51.960;5.582;2023-02-15T18:55:04;15.70;52.50
71237;DHT22;58984;51.960;5.582;2023-02-15T18:57:37;15.60;52.50
71237;DHT22;58984;51.960;5.582;2023-02-15T19:00:03;15.70;52.60
71237;DHT22;58984;51.960;5.582;2023-02-15T19:02:30;15.60;52.50
71237;DHT22;58984;51.960;5.582;2023-02-15T19:04:55;15.60;52.50
71237;DHT22;58984;51.960;5.582;2023-02-15T19:07:26;15.60;52.50
71237;DHT22;58984;51.960;5.582;2023-02-15T19:09:55;15.60;52.50
71237;DHT22;58984;51.960;5.582;2023-02-15T19:12:22;15.60;52.50
71237;DHT22;58984;51.960;5.582;2023-02-15T19:14:48;15.60;52.50
71237;DHT22;58984;51.960;5.582;2023-02-15T19:17:18;15.60;52.50
71237;DHT22;58984;51.960;5.582;2023-02-15T19:19:45;15.50;52.50